Time;durP1;ratioP1;P1;durP2;ratioP2;P2;SDS_P1;SDS_P2;PMS_P1;PMS_P2;Temp;Humidity;BMP_temperature;BMP_pressure;BME280_temperature;BME280_humidity;BME280_pressure;Samples;Min_cycle;Max_cycle;Signal;HPM_P1;HPM_P2
2021/08/19 00:01:05;;;;;;;2.50;1.57;;;17.50;99.90;;;;;;5109370;28;20530;-69
2021/08/19 00:03:33;;;;;;;3.50;1.57;;;17.50;99.90;;;;;;5110040;28;20995;-69
2021/08/19 00:06:00;;;;;;;2.47;1.47;;;17.50;99.90;;;;;;5109729;28;20483;-69
2021/08/19 00:08:27;;;;;;;2.70;1.20;;;17.50;99.90;;;;;;5110350;28;20449;-69
2021/08/19 00:10:54;;;;;;;2.43;1.40;;;17.50;99.90;;;;;;5109516;28;20483;-69
2021/08/19 00:13:21;;;;;;;2.20;1.10;;;17.50;99.90;;;;;;5110081;28;20896;-68
2021/08/19 00:15:49;;;;;;;2.67;1.10;;;17.50;99.90;;;;;;5109502;28;20446;-69
2021/08/19 00:18:16;;;;;;;3.03;1.33;;;17.40;99.90;;;;;;5111249;28;20448;-69
2021/08/19 00:20:45;;;;;;;3.00;1.30;;;17.40;99.90;;;;;;5112896;28;20475;-67
2021/08/19 00:23:11;;;;;;;3.47;1.10;;;17.40;99.90;;;;;;5114018;28;21021;-69
2021/08/19 00:25:38;;;;;;;2.40;1.40;;;17.40;99.90;;;;;;5113517;28;21002;-69
2021/08/19 00:28:05;;;;;;;2.20;1.20;;;17.40;99.90;;;;;;5114130;28;20453;-69
2021/08/19 00:30:32;;;;;;;2.50;1.20;;;17.40;99.90;;;;;;5113002;28;21191;-69
2021/08/19 00:32:59;;;;;;;2.57;1.10;;;17.40;99.90;;;;;;5113577;28;20452;-68
2021/08/19 00:35:27;;;;;;;3.30;1.20;;;17.40;99.90;;;;;;5113327;28;20447;-68
2021/08/19 00:37:55;;;;;;;2.00;1.00;;;17.40;99.90;;;;;;5113419;28;20487;-68
2021/08/19 00:40:22;;;;;;;2.00;0.90;;;17.40;99.90;;;;;;5112888;28;20843;-67
2021/08/19 00:42:49;;;;;;;2.43;1.10;;;17.40;99.90;;;;;;5112616;28;20763;-67
2021/08/19 00:45:16;;;;;;;2.40;1.37;;;17.40;99.90;;;;;;5113293;28;20532;-67
2021/08/19 00:47:42;;;;;;;2.40;1.27;;;17.40;99.90;;;;;;5113727;28;20859;-68
2021/08/19 00:50:10;;;;;;;3.77;1.23;;;17.40;99.90;;;;;;5112657;28;20469;-69
2021/08/19 00:52:38;;;;;;;2.57;1.27;;;17.40;99.90;;;;;;5113814;28;20857;-67
2021/08/19 00:55:08;;;;;;;2.20;0.90;;;17.40;99.90;;;;;;5113395;28;20498;-67
2021/08/19 00:57:37;;;;;;;2.27;1.27;;;17.40;99.90;;;;;;5113166;28;20441;-67
2021/08/19 01:00:04;;;;;;;2.80;1.10;;;17.30;99.90;;;;;;5112590;28;20451;-67
2021/08/19 01:02:31;;;;;;;2.13;1.10;;;17.30;99.90;;;;;;5113104;28;20444;-67
2021/08/19 01:04:58;;;;;;;2.40;1.47;;;17.30;99.90;;;;;;5112995;28;20449;-67
2021/08/19 01:07:25;;;;;;;2.30;1.20;;;17.30;99.90;;;;;;5113116;28;21001;-68
2021/08/19 01:09:52;;;;;;;2.10;0.97;;;17.30;99.90;;;;;;5112556;28;20445;-68
2021/08/19 01:12:20;;;;;;;2.30;1.20;;;17.30;99.90;;;;;;5113527;28;20552;-67
2021/08/19 01:14:48;;;;;;;4.00;1.23;;;17.40;99.90;;;;;;5112708;28;20946;-67
2021/08/19 01:17:17;;;;;;;2.93;1.20;;;17.30;99.90;;;;;;5113485;28;20801;-67
2021/08/19 01:19:46;;;;;;;2.20;1.20;;;17.30;99.90;;;;;;5112284;28;20457;-68
2021/08/19 01:22:14;;;;;;;2.67;1.00;;;17.30;99.90;;;;;;5113362;28;20444;-67
2021/08/19 01:24:41;;;;;;;3.90;1.70;;;17.30;99.90;;;;;;5112595;28;20532;-67
2021/08/19 01:27:13;;;;;;;2.53;1.40;;;17.40;99.90;;;;;;5112888;28;21036;-67
2021/08/19 01:29:40;;;;;;;2.43;1.30;;;17.40;99.90;;;;;;5111145;28;20447;-67
2021/08/19 01:32:08;;;;;;;2.23;1.10;;;17.30;99.90;;;;;;5112797;28;20469;-67
2021/08/19 01:34:35;;;;;;;2.40;1.40;;;17.30;99.90;;;;;;5112619;28;20464;-67
2021/08/19 01:37:03;;;;;;;2.53;1.23;;;17.30;99.90;;;;;;5112610;28;20456;-67
2021/08/19 01:39:30;;;;;;;3.43;1.50;;;17.30;99.90;;;;;;5112188;28;20445;-67
2021/08/19 01:41:58;;;;;;;2.40;1.40;;;17.30;99.90;;;;;;5112707;28;21066;-67
2021/08/19 01:44:26;;;;;;;2.50;1.23;;;17.30;99.90;;;;;;5112226;28;20487;-68
2021/08/19 01:46:54;;;;;;;2.37;1.37;;;17.30;99.90;;;;;;5112212;28;21002;-67
2021/08/19 01:49:21;;;;;;;2.30;1.40;;;17.30;99.90;;;;;;5111728;28;20446;-67
2021/08/19 01:51:49;;;;;;;2.30;1.33;;;17.30;99.90;;;;;;5112255;28;21181;-67
2021/08/19 01:54:16;;;;;;;2.33;1.47;;;17.20;99.90;;;;;;5112310;28;20447;-68
2021/08/19 01:56:43;;;;;;;3.27;1.60;;;17.30;99.90;;;;;;5112052;28;20913;-67
2021/08/19 01:59:10;;;;;;;3.90;1.40;;;17.30;99.90;;;;;;5111487;28;20437;-67
2021/08/19 02:01:38;;;;;;;2.67;1.60;;;17.30;99.90;;;;;;5112244;28;20497;-67
2021/08/19 02:04:05;;;;;;;2.47;1.43;;;17.30;99.90;;;;;;5112324;28;20437;-68
2021/08/19 02:06:32;;;;;;;2.40;1.60;;;17.20;99.90;;;;;;5111808;28;20473;-68
2021/08/19 02:08:59;;;;;;;2.47;1.50;;;17.30;99.90;;;;;;5111380;28;21012;-67
2021/08/19 02:11:26;;;;;;;2.33;1.43;;;17.20;99.90;;;;;;5111625;28;20834;-67
2021/08/19 02:13:53;;;;;;;2.77;1.70;;;17.20;99.90;;;;;;5112036;28;20556;-67
2021/08/19 02:16:20;;;;;;;3.30;1.67;;;17.20;99.90;;;;;;5111384;28;20528;-67
2021/08/19 02:18:49;;;;;;;3.70;1.60;;;17.20;99.90;;;;;;5111831;28;20483;-67
2021/08/19 02:21:16;;;;;;;2.70;1.87;;;17.20;99.90;;;;;;5111302;28;20500;-67
2021/08/19 02:23:43;;;;;;;2.50;1.60;;;17.10;99.90;;;;;;5111839;28;20452;-68
2021/08/19 02:26:09;;;;;;;3.00;1.70;;;17.10;99.90;;;;;;5111544;28;20437;-67
2021/08/19 02:28:36;;;;;;;3.37;1.80;;;17.10;99.90;;;;;;5111442;28;20449;-67
2021/08/19 02:31:03;;;;;;;2.90;1.70;;;17.20;99.90;;;;;;5110432;28;20556;-67
2021/08/19 02:33:30;;;;;;;3.43;1.93;;;17.20;99.90;;;;;;5111400;28;20536;-68
2021/08/19 02:35:58;;;;;;;3.17;2.37;;;17.20;99.90;;;;;;5111189;28;20445;-68
2021/08/19 02:38:25;;;;;;;5.17;2.13;;;17.20;99.90;;;;;;5111519;28;20452;-68
2021/08/19 02:40:52;;;;;;;2.83;1.70;;;17.20;99.90;;;;;;5110419;28;20468;-67
2021/08/19 02:43:19;;;;;;;2.60;1.53;;;17.20;99.90;;;;;;5111221;28;20441;-67
2021/08/19 02:45:46;;;;;;;4.90;1.70;;;17.20;99.90;;;;;;5110677;28;20454;-67
2021/08/19 02:48:13;;;;;;;3.40;2.20;;;17.20;99.90;;;;;;5111029;28;20580;-67
2021/08/19 02:50:40;;;;;;;2.97;1.80;;;17.20;99.90;;;;;;5110487;28;20461;-67
2021/08/19 02:53:08;;;;;;;3.40;1.63;;;17.10;99.90;;;;;;5111461;28;20919;-67
2021/08/19 02:55:35;;;;;;;2.87;2.03;;;17.10;99.90;;;;;;5110740;28;20540;-67
2021/08/19 02:58:02;;;;;;;2.80;1.70;;;17.10;99.90;;;;;;5111306;28;20444;-67
2021/08/19 03:00:28;;;;;;;3.47;1.80;;;17.10;99.90;;;;;;5110033;28;20468;-67
2021/08/19 03:02:55;;;;;;;3.63;1.73;;;17.10;99.90;;;;;;5110693;28;20989;-67
2021/08/19 03:05:22;;;;;;;3.83;2.30;;;17.10;99.90;;;;;;5110640;28;20797;-67
2021/08/19 03:07:49;;;;;;;3.10;1.97;;;17.10;99.90;;;;;;5110778;28;20575;-67
2021/08/19 03:10:17;;;;;;;3.33;1.93;;;17.10;99.90;;;;;;5110003;28;20565;-67
2021/08/19 03:12:44;;;;;;;2.80;1.90;;;17.10;99.90;;;;;;5110719;28;20484;-67
2021/08/19 03:15:11;;;;;;;4.40;2.00;;;17.10;99.90;;;;;;5110056;28;20445;-67
2021/08/19 03:17:38;;;;;;;3.13;2.17;;;17.10;99.90;;;;;;5110536;28;20536;-67
2021/08/19 03:20:07;;;;;;;3.30;2.00;;;17.10;99.90;;;;;;5109867;28;20576;-67
2021/08/19 03:22:34;;;;;;;3.07;2.10;;;17.10;99.90;;;;;;5110419;28;20506;-67
2021/08/19 03:25:01;;;;;;;3.10;2.27;;;17.10;99.90;;;;;;5110623;28;20450;-66
2021/08/19 03:27:31;;;;;;;2.93;2.00;;;17.10;99.90;;;;;;5110296;28;21024;-67
2021/08/19 03:29:58;;;;;;;5.40;2.50;;;17.10;99.90;;;;;;5109759;28;20446;-67
2021/08/19 03:32:25;;;;;;;2.90;2.07;;;17.10;99.90;;;;;;5110459;28;20452;-67
2021/08/19 03:34:52;;;;;;;4.70;1.90;;;17.10;99.90;;;;;;5110692;28;20437;-67
2021/08/19 03:37:19;;;;;;;3.20;1.70;;;17.10;99.90;;;;;;5110299;28;20938;-68
2021/08/19 03:39:46;;;;;;;4.23;2.17;;;17.10;99.90;;;;;;5110108;28;20548;-67
2021/08/19 03:42:13;;;;;;;2.93;2.03;;;17.10;99.90;;;;;;5110569;28;20978;-67
2021/08/19 03:44:41;;;;;;;2.80;2.00;;;17.20;99.90;;;;;;5110035;28;20452;-68
2021/08/19 03:47:09;;;;;;;2.80;2.07;;;17.10;99.90;;;;;;5110565;28;20479;-67
2021/08/19 03:49:36;;;;;;;2.70;1.90;;;17.10;99.90;;;;;;5109877;28;20453;-67
2021/08/19 03:52:03;;;;;;;2.77;1.93;;;17.10;99.90;;;;;;5110088;28;20496;-66
2021/08/19 03:54:30;;;;;;;2.80;2.10;;;17.10;99.90;;;;;;5109328;28;20452;-68
2021/08/19 03:56:57;;;;;;;3.30;1.77;;;17.10;99.90;;;;;;5110566;28;20452;-68
2021/08/19 03:59:24;;;;;;;2.90;1.83;;;17.10;99.90;;;;;;5109326;28;20437;-67
2021/08/19 04:01:52;;;;;;;3.10;1.87;;;17.10;99.90;;;;;;5110454;28;20556;-67
2021/08/19 04:04:19;;;;;;;3.23;2.00;;;17.10;99.90;;;;;;5110185;28;20452;-66
2021/08/19 04:06:45;;;;;;;3.30;1.93;;;17.00;99.90;;;;;;5110154;28;20484;-66
2021/08/19 04:09:12;;;;;;;3.13;1.83;;;17.10;99.90;;;;;;5109080;28;20965;-67
2021/08/19 04:11:39;;;;;;;3.43;2.20;;;17.00;99.90;;;;;;5110119;28;20549;-66
2021/08/19 04:14:06;;;;;;;3.80;2.10;;;17.00;99.90;;;;;;5110279;28;20445;-67
2021/08/19 04:16:33;;;;;;;2.70;1.90;;;17.00;99.90;;;;;;5109817;28;20449;-67
2021/08/19 04:19:01;;;;;;;3.17;2.20;;;17.00;99.90;;;;;;5109530;28;20540;-67
2021/08/19 04:21:28;;;;;;;3.63;2.10;;;17.00;99.90;;;;;;5110021;28;20471;-66
2021/08/19 04:23:55;;;;;;;3.37;2.00;;;17.00;99.90;;;;;;5109759;28;20540;-67
2021/08/19 04:26:22;;;;;;;2.90;1.60;;;17.10;99.90;;;;;;5109696;28;20438;-66
2021/08/19 04:28:49;;;;;;;3.00;1.90;;;17.10;99.90;;;;;;5109574;28;20477;-66
2021/08/19 04:31:16;;;;;;;4.07;2.20;;;17.10;99.90;;;;;;5109348;28;20832;-67
2021/08/19 04:33:42;;;;;;;4.77;1.93;;;17.10;99.90;;;;;;5109935;28;20437;-67
2021/08/19 04:36:11;;;;;;;4.97;2.20;;;17.20;99.90;;;;;;5109154;28;20442;-66
2021/08/19 04:38:38;;;;;;;3.27;2.27;;;17.20;99.90;;;;;;5110032;28;20453;-66
2021/08/19 04:41:05;;;;;;;4.77;1.97;;;17.20;99.90;;;;;;5109174;28;20840;-67
2021/08/19 04:43:32;;;;;;;2.70;1.87;;;17.20;99.90;;;;;;5109813;28;20441;-67
2021/08/19 04:45:59;;;;;;;3.30;1.87;;;17.20;99.90;;;;;;5109403;28;20449;-67
2021/08/19 04:48:25;;;;;;;3.37;2.10;;;17.20;99.90;;;;;;5109675;28;21062;-67
2021/08/19 04:50:53;;;;;;;2.90;1.80;;;17.20;99.90;;;;;;5108437;28;20465;-67
2021/08/19 04:53:21;;;;;;;3.60;2.27;;;17.20;99.90;;;;;;5109765;28;20449;-67
2021/08/19 04:55:48;;;;;;;2.90;2.07;;;17.20;99.90;;;;;;5109549;28;20451;-67
2021/08/19 04:58:15;;;;;;;3.00;2.10;;;17.30;99.90;;;;;;5109780;28;20505;-67
2021/08/19 05:00:42;;;;;;;2.77;1.83;;;17.20;99.90;;;;;;5108898;28;20465;-67
2021/08/19 05:03:09;;;;;;;3.20;2.10;;;17.30;99.90;;;;;;5110204;28;20471;-67
2021/08/19 05:05:35;;;;;;;2.90;2.10;;;17.30;99.90;;;;;;5112822;28;20939;-67
2021/08/19 05:08:02;;;;;;;5.67;2.60;;;17.30;99.90;;;;;;5113481;28;20559;-67
2021/08/19 05:10:31;;;;;;;4.40;2.60;;;17.40;99.90;;;;;;5112497;28;20746;-67
2021/08/19 05:12:58;;;;;;;5.03;2.50;;;17.50;99.90;;;;;;5113241;28;20543;-67
2021/08/19 05:15:25;;;;;;;6.43;2.53;;;17.50;99.90;;;;;;5112986;28;20451;-66
2021/08/19 05:17:52;;;;;;;4.30;1.97;;;17.50;99.90;;;;;;5113223;28;20527;-67
2021/08/19 05:20:19;;;;;;;3.43;2.23;;;17.60;99.90;;;;;;5112079;28;20564;-67
2021/08/19 05:22:45;;;;;;;4.90;2.50;;;17.60;99.90;;;;;;5113205;28;20535;-67
2021/08/19 05:25:13;;;;;;;5.80;2.90;;;17.60;99.90;;;;;;5112748;28;20528;-67
2021/08/19 05:27:41;;;;;;;4.50;2.60;;;17.60;99.90;;;;;;5112680;28;20484;-67
2021/08/19 05:30:10;;;;;;;4.17;2.13;;;17.60;99.90;;;;;;5112178;28;20469;-67
2021/08/19 05:32:37;;;;;;;4.63;2.13;;;17.60;99.90;;;;;;5111424;28;20830;-67
2021/08/19 05:35:04;;;;;;;2.70;1.80;;;17.50;99.90;;;;;;5112427;28;20455;-67
2021/08/19 05:37:31;;;;;;;4.20;2.27;;;17.60;99.90;;;;;;5112634;28;20447;-66
2021/08/19 05:39:58;;;;;;;3.30;2.40;;;17.60;99.90;;;;;;5111913;28;20449;-67
2021/08/19 05:42:26;;;;;;;3.80;2.80;;;17.60;99.90;;;;;;5112654;28;20457;-66
2021/08/19 05:44:54;;;;;;;4.87;2.20;;;17.70;99.90;;;;;;5112333;28;20765;-67
2021/08/19 05:47:21;;;;;;;3.57;2.20;;;17.80;99.90;;;;;;5112699;28;20501;-67
2021/08/19 05:49:48;;;;;;;4.97;2.37;;;17.80;99.90;;;;;;5111559;28;20445;-67
2021/08/19 05:52:15;;;;;;;3.43;2.30;;;17.80;99.90;;;;;;5112442;28;20480;-67
2021/08/19 05:54:43;;;;;;;4.40;2.50;;;17.80;99.90;;;;;;5111973;28;20954;-67
2021/08/19 05:57:12;;;;;;;4.47;2.73;;;17.80;99.90;;;;;;5112307;28;20452;-67
2021/08/19 05:59:40;;;;;;;3.70;2.43;;;17.80;99.90;;;;;;5111118;28;20445;-68
2021/08/19 06:02:09;;;;;;;3.43;2.37;;;17.80;99.90;;;;;;5112309;28;20470;-67
2021/08/19 06:04:37;;;;;;;5.20;3.03;;;17.80;99.90;;;;;;5111656;28;20472;-67
2021/08/19 06:07:04;;;;;;;6.70;3.13;;;17.90;99.90;;;;;;5111846;28;20454;-67
2021/08/19 06:09:31;;;;;;;5.90;3.47;;;17.90;99.90;;;;;;5111167;28;21082;-66
2021/08/19 06:11:58;;;;;;;4.30;3.10;;;17.80;99.90;;;;;;5111678;28;20556;-67
2021/08/19 06:14:25;;;;;;;4.10;3.57;;;17.70;99.90;;;;;;5112028;28;20446;-67
2021/08/19 06:16:51;;;;;;;3.90;3.20;;;17.80;99.90;;;;;;5111199;28;20556;-68
2021/08/19 06:19:20;;;;;;;5.60;3.00;;;17.90;99.90;;;;;;5110761;28;20463;-68
2021/08/19 06:21:47;;;;;;;5.57;3.00;;;18.10;99.90;;;;;;5111748;28;20464;-68
2021/08/19 06:24:14;;;;;;;4.60;3.13;;;18.30;99.90;;;;;;5111552;28;20445;-68
2021/08/19 06:26:41;;;;;;;3.20;2.50;;;18.50;99.90;;;;;;5111315;28;20452;-69
2021/08/19 06:29:09;;;;;;;5.80;2.67;;;18.80;99.90;;;;;;5111123;28;20508;-68
2021/08/19 06:31:36;;;;;;;3.80;2.33;;;19.10;99.90;;;;;;5111205;28;20558;-69
2021/08/19 06:34:03;;;;;;;2.63;1.93;;;19.30;99.90;;;;;;5111613;28;20452;-68
2021/08/19 06:36:31;;;;;;;4.00;2.30;;;19.50;99.90;;;;;;5110837;28;20446;-69
2021/08/19 06:38:58;;;;;;;3.50;2.60;;;19.70;99.90;;;;;;5110353;28;20441;-69
2021/08/19 06:41:27;;;;;;;6.50;2.87;;;19.80;99.90;;;;;;5110113;28;20544;-69
2021/08/19 06:43:54;;;;;;;3.90;2.40;;;20.00;99.90;;;;;;5111212;28;20826;-69
2021/08/19 06:46:21;;;;;;;3.43;2.40;;;20.20;99.90;;;;;;5110730;28;20447;-68
2021/08/19 06:48:47;;;;;;;3.50;2.50;;;20.40;99.90;;;;;;5110756;28;20481;-69
2021/08/19 06:51:14;;;;;;;3.70;2.40;;;20.60;99.90;;;;;;5109871;28;20457;-69
2021/08/19 06:53:42;;;;;;;4.60;2.10;;;20.80;99.90;;;;;;5111223;28;20544;-68
2021/08/19 06:56:09;;;;;;;4.20;2.30;;;20.80;99.90;;;;;;5110457;28;20443;-69
2021/08/19 06:58:36;;;;;;;3.10;2.00;;;20.70;99.90;;;;;;5110696;28;20465;-68
2021/08/19 07:01:03;;;;;;;3.33;2.60;;;20.50;99.90;;;;;;5109839;28;20548;-68
2021/08/19 07:03:30;;;;;;;4.30;2.50;;;20.20;99.90;;;;;;5110784;28;20528;-68
2021/08/19 07:05:57;;;;;;;4.80;2.60;;;20.10;99.90;;;;;;5110144;28;20445;-68
2021/08/19 07:08:24;;;;;;;3.23;2.23;;;20.10;99.90;;;;;;5110370;28;20473;-68
2021/08/19 07:10:52;;;;;;;3.73;2.17;;;20.10;99.90;;;;;;5109406;28;21066;-68
2021/08/19 07:13:19;;;;;;;3.80;2.60;;;20.10;99.90;;;;;;5110636;28;20453;-69
2021/08/19 07:15:46;;;;;;;3.80;2.53;;;20.30;99.90;;;;;;5110340;28;20448;-68
2021/08/19 07:18:13;;;;;;;3.30;2.57;;;20.40;99.90;;;;;;5110337;28;20464;-68
2021/08/19 07:20:40;;;;;;;5.80;2.63;;;20.40;99.90;;;;;;5109684;27;20556;-68
2021/08/19 07:23:07;;;;;;;5.13;2.03;;;20.60;99.90;;;;;;5111051;28;20445;-69
2021/08/19 07:25:34;;;;;;;5.30;2.73;;;20.70;99.90;;;;;;5109838;28;20452;-67
2021/08/19 07:28:03;;;;;;;3.60;2.57;;;20.70;99.90;;;;;;5109342;28;20568;-69
2021/08/19 07:30:30;;;;;;;3.23;2.17;;;20.50;99.90;;;;;;5109258;28;20473;-68
2021/08/19 07:32:57;;;;;;;3.13;2.20;;;20.40;99.90;;;;;;5110165;28;20847;-68
2021/08/19 07:35:25;;;;;;;4.20;2.53;;;20.50;99.90;;;;;;5109935;28;20445;-68
2021/08/19 07:37:56;;;;;;;5.20;2.70;;;20.50;99.90;;;;;;5110321;28;20437;-68
2021/08/19 07:40:27;;;;;;;2.97;2.00;;;20.60;99.90;;;;;;5109505;28;21018;-68
2021/08/19 07:42:55;;;;;;;3.87;2.20;;;20.60;99.90;;;;;;5110198;28;20422;-68
2021/08/19 07:45:26;;;;;;;2.87;2.00;;;20.50;99.90;;;;;;5109519;28;20467;-68
2021/08/19 07:47:54;;;;;;;3.10;2.23;;;20.50;99.90;;;;;;5110247;28;20528;-68
2021/08/19 07:50:21;;;;;;;3.60;2.30;;;20.70;99.90;;;;;;5109000;28;20967;-68
2021/08/19 07:52:48;;;;;;;3.13;2.33;;;20.80;99.90;;;;;;5110294;28;20445;-68
2021/08/19 07:55:15;;;;;;;4.10;2.30;;;20.70;99.90;;;;;;5109738;28;20971;-68
2021/08/19 07:57:44;;;;;;;3.37;2.30;;;20.60;99.90;;;;;;5109839;28;20449;-68
2021/08/19 08:00:12;;;;;;;4.37;2.50;;;20.60;99.90;;;;;;5109123;28;20548;-68
2021/08/19 08:02:40;;;;;;;3.40;2.50;;;20.80;99.90;;;;;;5109383;28;20445;-68
2021/08/19 08:05:08;;;;;;;4.07;1.90;;;20.70;99.90;;;;;;5109678;28;20294;-68
2021/08/19 08:07:35;;;;;;;3.63;2.10;;;20.70;99.90;;;;;;5110305;28;20545;-68
2021/08/19 08:10:02;;;;;;;3.27;1.87;;;20.90;99.90;;;;;;5109438;28;20477;-68
2021/08/19 08:12:29;;;;;;;4.50;2.37;;;20.90;99.90;;;;;;5110070;28;20441;-68
2021/08/19 08:14:55;;;;;;;3.10;2.30;;;20.90;99.90;;;;;;5109607;28;20526;-69
2021/08/19 08:17:22;;;;;;;4.00;2.00;;;20.70;99.90;;;;;;5109807;28;20481;-69
2021/08/19 08:19:51;;;;;;;3.40;2.30;;;20.60;99.90;;;;;;5108663;28;20537;-68
2021/08/19 08:22:19;;;;;;;4.27;2.70;;;20.50;99.90;;;;;;5109768;28;20532;-67
2021/08/19 08:24:46;;;;;;;6.90;2.70;;;20.30;99.90;;;;;;5109192;28;20890;-68
2021/08/19 08:27:13;;;;;;;4.27;2.40;;;20.00;99.90;;;;;;5109412;28;20536;-68
2021/08/19 08:29:40;;;;;;;3.33;2.50;;;19.90;99.90;;;;;;5108896;28;20488;-68
2021/08/19 08:32:07;;;;;;;5.23;2.60;;;20.10;99.90;;;;;;5109886;28;20461;-68
2021/08/19 08:34:34;;;;;;;3.70;2.07;;;20.40;99.90;;;;;;5109215;28;20506;-68
2021/08/19 08:37:03;;;;;;;5.50;2.20;;;20.80;99.90;;;;;;5109735;28;20822;-68
2021/08/19 08:39:33;;;;;;;4.10;2.67;;;21.00;99.90;;;;;;5110736;28;20651;-68
2021/08/19 08:42:01;;;;;;;3.83;2.20;;;21.20;99.90;;;;;;5113322;28;20461;-69
2021/08/19 08:44:28;;;;;;;3.93;2.23;;;21.20;99.90;;;;;;5113227;28;20874;-68
2021/08/19 08:46:55;;;;;;;3.83;1.80;;;21.20;99.90;;;;;;5113355;28;20571;-68
2021/08/19 08:49:23;;;;;;;4.77;2.63;;;21.30;99.90;;;;;;5112592;28;20510;-68
2021/08/19 08:51:55;;;;;;;3.70;2.47;;;21.50;99.90;;;;;;5113155;28;20544;-68
2021/08/19 08:54:24;;;;;;;3.53;1.97;;;21.60;99.90;;;;;;5113069;28;20432;-69
2021/08/19 08:56:51;;;;;;;2.97;2.13;;;21.90;99.90;;;;;;5113288;28;20488;-68
2021/08/19 08:59:18;;;;;;;3.60;2.37;;;22.20;99.90;;;;;;5112620;28;20524;-68
2021/08/19 09:01:45;;;;;;;3.70;2.27;;;22.40;99.90;;;;;;5113296;28;20561;-68
2021/08/19 09:04:12;;;;;;;2.90;1.80;;;22.50;99.90;;;;;;5112706;28;20511;-69
2021/08/19 09:06:41;;;;;;;4.00;1.80;;;22.70;99.90;;;;;;5112644;28;20528;-68
2021/08/19 09:09:23;;;;;;;6.27;2.70;;;22.60;99.90;;;;;;5112436;28;20477;-68
2021/08/19 09:11:54;;;;;;;4.77;1.83;;;22.40;99.90;;;;;;5113129;28;20906;-68
2021/08/19 09:14:23;;;;;;;3.53;2.20;;;21.90;99.90;;;;;;5112560;28;20445;-68
2021/08/19 09:16:51;;;;;;;4.87;1.90;;;21.70;99.90;;;;;;5113259;28;20563;-69
2021/08/19 09:19:19;;;;;;;3.00;2.00;;;21.90;99.90;;;;;;5111983;28;20457;-68
2021/08/19 09:21:49;;;;;;;4.13;2.00;;;22.10;99.90;;;;;;5112442;28;20492;-68
2021/08/19 09:24:17;;;;;;;3.87;1.70;;;22.30;99.90;;;;;;5112599;28;20442;-68
2021/08/19 09:26:50;;;;;;;2.60;1.50;;;22.30;99.90;;;;;;5113136;28;20437;-68
2021/08/19 09:29:22;;;;;;;2.40;1.40;;;22.20;99.90;;;;;;5111789;28;20471;-68
2021/08/19 09:31:51;;;;;;;2.90;1.23;;;21.90;99.90;;;;;;5112696;28;20496;-69
2021/08/19 09:34:19;;;;;;;3.07;1.40;;;22.00;99.90;;;;;;5112119;28;20977;-68
2021/08/19 09:36:46;;;;;;;3.87;1.33;;;22.20;99.90;;;;;;5112597;28;20448;-69
2021/08/19 09:39:13;;;;;;;3.23;1.40;;;22.50;99.90;;;;;;5111629;28;20448;-68
2021/08/19 09:41:54;;;;;;;2.93;1.37;;;22.60;99.90;;;;;;5112374;28;20465;-69
2021/08/19 09:44:33;;;;;;;2.87;1.40;;;22.90;99.90;;;;;;5111921;28;20824;-69
2021/08/19 09:47:01;;;;;;;3.60;1.80;;;23.30;99.90;;;;;;5112351;28;20441;-68
2021/08/19 09:49:30;;;;;;;2.10;0.90;;;23.70;99.90;;;;;;5111605;28;20483;-69
2021/08/19 09:52:01;;;;;;;2.73;1.10;;;24.20;99.90;;;;;;5111519;28;20472;-68
2021/08/19 09:54:30;;;;;;;2.70;1.20;;;24.20;99.90;;;;;;5111955;28;20441;-68
2021/08/19 09:56:58;;;;;;;2.80;1.10;;;24.00;99.90;;;;;;5112500;28;20447;-68
2021/08/19 09:59:27;;;;;;;2.80;1.30;;;23.90;99.90;;;;;;5111649;28;20452;-68
2021/08/19 10:01:55;;;;;;;3.13;1.33;;;24.00;99.90;;;;;;5112407;28;20477;-68
2021/08/19 10:04:25;;;;;;;3.43;1.57;;;23.90;99.90;;;;;;5111723;28;20544;-69
2021/08/19 10:06:52;;;;;;;2.10;1.00;;;24.00;99.90;;;;;;5112135;28;20453;-68
2021/08/19 10:09:19;;;;;;;2.40;1.23;;;24.20;99.90;;;;;;5111283;28;20568;-68
2021/08/19 10:11:48;;;;;;;2.47;1.00;;;24.30;99.90;;;;;;5111799;28;20836;-68
2021/08/19 10:14:18;;;;;;;3.13;1.40;;;24.50;99.90;;;;;;5111749;28;20444;-69
2021/08/19 10:16:45;;;;;;;2.57;1.20;;;25.10;99.90;;;;;;5112133;28;20456;-68
2021/08/19 10:19:15;;;;;;;2.50;1.20;;;25.60;99.90;;;;;;5111534;28;20453;-69
2021/08/19 10:21:47;;;;;;;2.20;1.10;;;26.00;99.90;;;;;;5111972;28;20492;-69
2021/08/19 10:24:14;;;;;;;3.23;1.40;;;26.20;99.90;;;;;;5111768;28;20436;-69
2021/08/19 10:26:41;;;;;;;3.13;1.73;;;25.80;99.90;;;;;;5111772;28;20448;-69
2021/08/19 10:29:08;;;;;;;3.67;1.50;;;25.10;99.90;;;;;;5110756;28;20473;-68
2021/08/19 10:31:50;;;;;;;3.60;1.70;;;24.40;99.90;;;;;;5111315;28;20468;-69
2021/08/19 10:34:19;;;;;;;2.97;1.37;;;23.80;99.90;;;;;;5110848;28;20460;-69
2021/08/19 10:36:54;;;;;;;2.50;1.50;;;23.30;99.90;;;;;;5111373;28;20451;-68
2021/08/19 10:39:29;;;;;;;2.23;1.20;;;23.10;99.90;;;;;;5110697;28;20459;-68
2021/08/19 10:41:57;;;;;;;2.40;1.33;;;23.00;99.90;;;;;;5111222;28;20531;-68
2021/08/19 10:44:30;;;;;;;2.50;1.33;;;22.70;99.90;;;;;;5110658;28;20459;-69
2021/08/19 10:46:59;;;;;;;3.00;1.40;;;22.50;99.90;;;;;;5111493;28;20426;-68
2021/08/19 10:49:36;;;;;;;2.30;1.33;;;22.40;99.90;;;;;;5110451;28;20521;-69
2021/08/19 10:52:36;;;;;;;2.53;1.33;;;22.20;99.90;;;;;;5111260;28;20552;-68
2021/08/19 10:55:15;;;;;;;3.00;1.60;;;21.80;99.90;;;;;;5027394;28;20425;-68
2021/08/19 10:57:53;;;;;;;2.57;1.43;;;21.70;99.90;;;;;;5028034;28;20452;-68
2021/08/19 11:00:36;;;;;;;3.40;1.60;;;21.50;99.90;;;;;;5076463;28;20461;-69
2021/08/19 11:03:04;;;;;;;3.23;1.63;;;21.50;99.90;;;;;;5110816;28;20521;-68
2021/08/19 11:05:54;;;;;;;3.80;1.63;;;21.60;99.90;;;;;;5110157;28;20469;-68
2021/08/19 11:08:39;;;;;;;2.87;1.90;;;21.70;99.90;;;;;;5111226;28;20448;-68
2021/08/19 11:11:07;;;;;;;3.23;1.67;;;21.90;99.90;;;;;;5109898;28;20483;-68
2021/08/19 11:13:35;;;;;;;3.67;1.60;;;22.00;99.90;;;;;;5110596;28;20876;-69
2021/08/19 11:16:06;;;;;;;2.70;1.33;;;22.20;99.90;;;;;;5109972;28;20942;-69
2021/08/19 11:18:36;;;;;;;3.47;1.90;;;22.40;99.90;;;;;;5110353;28;20448;-69
2021/08/19 11:21:04;;;;;;;3.60;1.90;;;22.50;99.90;;;;;;5109635;28;21010;-68
2021/08/19 11:23:33;;;;;;;4.00;1.90;;;22.40;99.90;;;;;;5110357;28;20845;-68
2021/08/19 11:26:04;;;;;;;3.57;1.80;;;22.50;99.90;;;;;;5109958;28;20456;-67
2021/08/19 11:28:40;;;;;;;4.23;2.00;;;22.50;99.90;;;;;;5110425;28;20449;-67
2021/08/19 11:31:12;;;;;;;2.70;1.60;;;22.50;99.90;;;;;;5109487;28;20484;-67
2021/08/19 11:33:41;;;;;;;3.47;1.93;;;22.60;99.90;;;;;;5110596;28;20543;-67
2021/08/19 11:36:09;;;;;;;2.93;1.97;;;22.70;99.90;;;;;;5110227;28;20540;-67
2021/08/19 11:38:36;;;;;;;3.50;1.87;;;22.80;99.90;;;;;;5110128;28;21014;-66
2021/08/19 11:41:13;;;;;;;3.00;1.80;;;22.80;99.90;;;;;;5109187;28;20986;-67
2021/08/19 11:43:42;;;;;;;2.90;1.60;;;22.90;99.90;;;;;;5110270;28;20532;-67
2021/08/19 11:46:11;;;;;;;3.57;2.00;;;22.80;99.90;;;;;;5109717;28;20518;-67
2021/08/19 11:48:48;;;;;;;3.00;1.43;;;22.90;99.90;;;;;;5110061;28;21124;-67
2021/08/19 11:51:22;;;;;;;3.13;2.00;;;23.00;99.90;;;;;;5109334;28;20480;-67
2021/08/19 11:53:50;;;;;;;3.60;2.07;;;23.20;99.90;;;;;;5110379;28;20428;-67
2021/08/19 11:56:18;;;;;;;4.17;2.13;;;23.50;99.90;;;;;;5109810;28;20483;-68
2021/08/19 11:58:47;;;;;;;4.03;2.00;;;23.70;99.90;;;;;;5109945;28;20460;-67
2021/08/19 12:01:14;;;;;;;3.20;1.93;;;24.00;99.90;;;;;;5109401;28;20473;-68
2021/08/19 12:03:43;;;;;;;3.77;1.90;;;24.30;99.90;;;;;;5110010;28;20441;-68
2021/08/19 12:06:12;;;;;;;2.83;1.70;;;24.40;99.90;;;;;;5109768;28;20506;-68
2021/08/19 12:08:45;;;;;;;2.67;1.80;;;24.40;99.90;;;;;;5110027;28;20452;-68
2021/08/19 12:11:17;;;;;;;2.90;1.80;;;24.50;99.90;;;;;;5109024;28;20860;-68
2021/08/19 12:13:44;;;;;;;3.87;1.57;;;24.90;99.90;;;;;;5110703;28;20445;-68
2021/08/19 12:16:12;;;;;;;4.20;1.80;;;25.10;99.90;;;;;;5113927;28;20437;-68
2021/08/19 12:18:38;;;;;;;4.63;1.80;;;25.40;99.90;;;;;;5114175;28;20443;-68
2021/08/19 12:21:20;;;;;;;2.47;1.40;;;25.50;99.90;;;;;;5113406;28;20548;-69
2021/08/19 12:23:48;;;;;;;3.20;1.63;;;25.40;99.90;;;;;;5114157;28;20441;-69
2021/08/19 12:26:17;;;;;;;2.90;1.47;;;25.40;99.90;;;;;;5113971;28;20469;-69
2021/08/19 12:28:55;;;;;;;2.80;1.53;;;25.60;99.90;;;;;;5114095;28;20516;-68
2021/08/19 12:31:23;;;;;;;3.00;1.33;;;25.60;99.90;;;;;;5113615;28;21024;-69
2021/08/19 12:34:02;;;;;;;3.00;1.50;;;26.10;99.90;;;;;;5113987;28;20487;-69
2021/08/19 12:36:33;;;;;;;2.83;1.63;;;26.30;99.90;;;;;;5113752;28;20440;-69
2021/08/19 12:39:15;;;;;;;3.33;1.63;;;26.60;99.90;;;;;;5112782;28;20441;-69
2021/08/19 12:41:44;;;;;;;4.03;1.77;;;27.10;99.90;;;;;;5111782;28;20496;-69
2021/08/19 12:44:12;;;;;;;4.27;1.90;;;27.10;99.90;;;;;;5113545;28;20490;-69
2021/08/19 12:46:41;;;;;;;2.97;1.43;;;27.10;99.90;;;;;;5113571;28;20898;-69
2021/08/19 12:49:29;;;;;;;3.27;2.17;;;26.90;99.90;;;;;;5112899;28;20556;-69
2021/08/19 12:52:18;;;;;;;4.73;2.33;;;26.30;99.90;;;;;;5113377;28;20457;-69
2021/08/19 12:55:03;;;;;;;3.70;1.90;;;25.40;99.90;;;;;;5112838;28;20531;-69